Time;durP1;ratioP1;P1;durP2;ratioP2;P2;SDS_P1;SDS_P2;PMS_P1;PMS_P2;Temp;Humidity;BMP_temperature;BMP_pressure;BME280_temperature;BME280_humidity;BME280_pressure;Samples;Min_cycle;Max_cycle;Signal;HPM_P1;HPM_P2
2021/09/27 00:00:27;;;;;;;13.65;9.45;;;;;;;;;;4901237;29;20386;-90
2021/09/27 00:02:53;;;;;;;13.60;9.55;;;;;;;;;;4918673;29;20028;-90
2021/09/27 00:05:20;;;;;;;13.50;9.57;;;;;;;;;;4901221;29;20493;-92
2021/09/27 00:07:47;;;;;;;15.20;9.50;;;;;;;;;;4901522;29;20024;-90
2021/09/27 00:10:15;;;;;;;11.63;8.50;;;;;;;;;;4918040;29;20028;-91
2021/09/27 00:12:42;;;;;;;14.40;9.38;;;;;;;;;;4901283;29;20032;-91
2021/09/27 00:15:11;;;;;;;13.57;9.38;;;;;;;;;;4901139;29;20028;-90
2021/09/27 00:17:37;;;;;;;13.73;8.85;;;;;;;;;;4901008;29;20413;-91
2021/09/27 00:20:04;;;;;;;15.63;10.57;;;;;;;;;;4918014;29;20056;-91
2021/09/27 00:22:31;;;;;;;15.27;10.13;;;;;;;;;;4918768;29;20063;-90
2021/09/27 00:24:57;;;;;;;12.70;9.10;;;;;;;;;;4901540;29;20028;-91
2021/09/27 00:27:23;;;;;;;14.32;10.18;;;;;;;;;;4901370;29;20028;-91
2021/09/27 00:29:50;;;;;;;14.27;9.98;;;;;;;;;;4901144;29;20028;-91
2021/09/27 00:32:16;;;;;;;22.52;10.13;;;;;;;;;;4901577;29;20172;-89
2021/09/27 00:34:42;;;;;;;17.20;10.13;;;;;;;;;;4901486;29;20482;-92
2021/09/27 00:37:09;;;;;;;13.85;9.60;;;;;;;;;;4901387;29;20028;-92
2021/09/27 00:39:35;;;;;;;14.65;9.25;;;;;;;;;;4918338;29;20028;-87
2021/09/27 00:42:01;;;;;;;14.35;9.25;;;;;;;;;;4901225;29;20418;-91
2021/09/27 00:44:27;;;;;;;16.27;9.10;;;;;;;;;;4901430;29;20043;-90
2021/09/27 00:46:54;;;;;;;13.93;9.73;;;;;;;;;;4918176;29;20050;-91
2021/09/27 00:49:20;;;;;;;15.40;8.52;;;;;;;;;;4918313;29;20043;-91
2021/09/27 00:51:46;;;;;;;19.40;11.85;;;;;;;;;;4900682;29;20070;-92
2021/09/27 00:54:24;;;;;;;15.23;10.75;;;;;;;;;;4901898;29;20040;-93
2021/09/27 00:57:05;;;;;;;12.82;9.23;;;;;;;;;;4904810;29;20490;-92
2021/09/27 00:59:31;;;;;;;13.68;8.85;;;;;;;;;;4904491;29;20080;-89
2021/09/27 01:01:58;;;;;;;13.90;8.52;;;;;;;;;;4921868;29;20020;-92
2021/09/27 01:04:24;;;;;;;15.70;8.80;;;;;;;;;;4904576;29;20032;-92
2021/09/27 01:06:59;;;;;;;13.82;9.25;;;;;;;;;;4904721;29;20028;-91
2021/09/27 01:09:32;;;;;;;13.65;9.27;;;;;;;;;;4904736;29;20036;-91
2021/09/27 01:12:13;;;;;;;12.57;8.63;;;;;;;;;;4904439;29;20032;-92
2021/09/27 01:14:42;;;;;;;14.52;8.70;;;;;;;;;;4904675;29;20032;-92
2021/09/27 01:17:08;;;;;;;13.98;7.97;;;;;;;;;;4921241;29;20079;-92
2021/09/27 01:19:44;;;;;;;16.05;8.93;;;;;;;;;;4904494;29;20488;-91
2021/09/27 01:22:30;;;;;;;16.55;10.82;;;;;;;;;;4904581;29;20442;-91
2021/09/27 01:25:15;;;;;;;13.70;9.73;;;;;;;;;;4876368;29;20063;-88
2021/09/27 01:27:57;;;;;;;12.32;9.20;;;;;;;;;;4904435;29;20393;-92
2021/09/27 01:30:23;;;;;;;12.63;9.55;;;;;;;;;;4904066;29;20032;-90
2021/09/27 01:32:51;;;;;;;15.95;9.55;;;;;;;;;;4903851;29;20035;-90
2021/09/27 01:35:46;;;;;;;16.40;10.15;;;;;;;;;;4903745;29;20040;-90
2021/09/27 01:38:17;;;;;;;13.90;9.95;;;;;;;;;;4891577;29;20046;-90
2021/09/27 01:40:43;;;;;;;12.70;8.70;;;;;;;;;;4903686;29;20075;-89
2021/09/27 01:43:19;;;;;;;14.50;8.82;;;;;;;;;;4903601;29;20024;-89
2021/09/27 01:46:05;;;;;;;13.70;10.23;;;;;;;;;;4903392;29;20393;-90
2021/09/27 01:48:37;;;;;;;10.68;8.27;;;;;;;;;;4903512;29;20024;-91
2021/09/27 01:51:30;;;;;;;12.82;9.27;;;;;;;;;;4903458;29;20043;-90
2021/09/27 01:53:59;;;;;;;14.48;10.32;;;;;;;;;;4900869;29;20043;-89
2021/09/27 01:56:32;;;;;;;13.93;9.55;;;;;;;;;;4903437;29;20028;-92
2021/09/27 01:59:16;;;;;;;15.05;9.48;;;;;;;;;;4903615;29;20032;-90
2021/09/27 02:01:43;;;;;;;10.60;8.68;;;;;;;;;;4903410;29;20040;-91
2021/09/27 02:04:16;;;;;;;16.40;10.73;;;;;;;;;;4903489;29;20028;-92
2021/09/27 02:06:45;;;;;;;14.43;9.35;;;;;;;;;;4902189;29;20055;-92
2021/09/27 02:09:14;;;;;;;13.95;9.38;;;;;;;;;;4903436;29;20133;-91
2021/09/27 02:11:42;;;;;;;11.77;9.18;;;;;;;;;;4920043;29;20039;-89
2021/09/27 02:14:12;;;;;;;13.88;9.27;;;;;;;;;;4903221;29;20095;-89
2021/09/27 02:16:41;;;;;;;12.43;8.45;;;;;;;;;;4920208;29;20040;-91
2021/09/27 02:19:19;;;;;;;13.43;8.60;;;;;;;;;;4903217;29;20039;-89
2021/09/27 02:21:48;;;;;;;14.63;9.05;;;;;;;;;;4903212;29;20482;-91
2021/09/27 02:24:17;;;;;;;12.52;8.25;;;;;;;;;;4903030;29;20083;-91
2021/09/27 02:26:48;;;;;;;14.63;9.05;;;;;;;;;;4920244;29;20450;-91
2021/09/27 02:29:15;;;;;;;15.85;9.25;;;;;;;;;;4904175;29;20486;-92
2021/09/27 02:31:57;;;;;;;12.05;8.60;;;;;;;;;;4903024;29;20037;-91
2021/09/27 02:34:35;;;;;;;15.88;8.57;;;;;;;;;;4919716;29;20028;-92
2021/09/27 02:37:11;;;;;;;15.23;10.75;;;;;;;;;;4902851;29;20056;-91
2021/09/27 02:39:48;;;;;;;15.18;10.15;;;;;;;;;;4919691;29;20028;-92
2021/09/27 02:42:20;;;;;;;13.75;9.18;;;;;;;;;;4902693;29;20025;-87
2021/09/27 02:44:47;;;;;;;14.45;9.10;;;;;;;;;;4902537;29;20062;-92
2021/09/27 02:47:18;;;;;;;13.80;10.27;;;;;;;;;;4902422;29;20032;-90
2021/09/27 02:49:45;;;;;;;16.23;10.82;;;;;;;;;;4902792;29;20150;-90
2021/09/27 02:52:13;;;;;;;15.35;8.93;;;;;;;;;;4902554;29;20052;-90
2021/09/27 02:54:42;;;;;;;12.95;8.93;;;;;;;;;;4919267;29;20032;-89
2021/09/27 02:57:15;;;;;;;13.23;9.35;;;;;;;;;;4902583;29;20039;-90
2021/09/27 02:59:44;;;;;;;13.88;9.38;;;;;;;;;;4902534;29;20032;-93
2021/09/27 03:02:16;;;;;;;13.52;9.13;;;;;;;;;;4902731;29;20064;-92
2021/09/27 03:05:04;;;;;;;13.95;9.40;;;;;;;;;;4902461;29;20024;-92
2021/09/27 03:07:33;;;;;;;16.23;10.13;;;;;;;;;;4902565;29;20119;-93
2021/09/27 03:09:59;;;;;;;17.55;10.43;;;;;;;;;;4902321;29;20020;-92
2021/09/27 03:12:38;;;;;;;13.68;9.70;;;;;;;;;;4902393;29;20563;-90
2021/09/27 03:15:15;;;;;;;13.00;10.02;;;;;;;;;;4902297;29;20028;-91
2021/09/27 03:17:54;;;;;;;13.77;9.20;;;;;;;;;;4901827;29;20528;-93
2021/09/27 03:20:28;;;;;;;13.45;9.52;;;;;;;;;;4918938;29;20032;-90
2021/09/27 03:22:57;;;;;;;11.57;8.80;;;;;;;;;;4902208;29;20024;-92
2021/09/27 03:25:42;;;;;;;13.45;9.43;;;;;;;;;;4902108;29;20051;-90
2021/09/27 03:28:14;;;;;;;12.70;8.55;;;;;;;;;;4902181;29;20032;-92
2021/09/27 03:30:52;;;;;;;12.88;8.35;;;;;;;;;;4902251;29;20409;-93
2021/09/27 03:33:27;;;;;;;12.77;9.25;;;;;;;;;;4902046;29;20059;-92
2021/09/27 03:36:01;;;;;;;14.32;8.60;;;;;;;;;;4901856;29;20063;-91
2021/09/27 03:38:33;;;;;;;12.30;8.68;;;;;;;;;;4902133;29;20438;-91
2021/09/27 03:41:20;;;;;;;14.98;9.30;;;;;;;;;;4901940;29;20032;-91
2021/09/27 03:43:59;;;;;;;17.60;8.93;;;;;;;;;;4892334;29;20074;-92
2021/09/27 03:46:39;;;;;;;12.23;8.63;;;;;;;;;;4901735;29;20025;-92
2021/09/27 03:49:18;;;;;;;14.98;8.55;;;;;;;;;;4901721;29;20036;-92
2021/09/27 03:51:44;;;;;;;12.02;8.63;;;;;;;;;;4901873;29;20505;-92
2021/09/27 03:54:25;;;;;;;13.52;8.10;;;;;;;;;;4918974;29;20035;-92
2021/09/27 03:57:04;;;;;;;10.48;8.02;;;;;;;;;;4901346;29;20031;-92
2021/09/27 03:59:36;;;;;;;12.05;8.07;;;;;;;;;;4901652;29;20023;-92
2021/09/27 04:02:22;;;;;;;12.77;7.32;;;;;;;;;;4901409;29;20405;-92
2021/09/27 04:05:07;;;;;;;12.75;8.07;;;;;;;;;;4901661;29;20096;-92
2021/09/27 04:07:41;;;;;;;12.35;7.47;;;;;;;;;;4901390;29;20511;-92
2021/09/27 04:10:07;;;;;;;;;;;;;;;;;;4901845;29;20120;-91
2021/09/27 04:12:53;;;;;;;11.63;8.02;;;;;;;;;;4901343;29;19918;-91
2021/09/27 04:15:38;;;;;;;11.48;7.15;;;;;;;;;;4873309;29;20074;-92
2021/09/27 04:18:12;;;;;;;11.10;7.00;;;;;;;;;;4903888;29;20058;-91
2021/09/27 04:20:38;;;;;;;9.73;6.68;;;;;;;;;;4902424;29;20029;-91
2021/09/27 04:23:22;;;;;;;11.23;7.05;;;;;;;;;;4901153;29;20087;-91
2021/09/27 04:26:07;;;;;;;12.48;7.85;;;;;;;;;;4901274;29;20028;-92
2021/09/27 04:28:36;;;;;;;11.98;7.35;;;;;;;;;;4900768;29;20036;-92
2021/09/27 04:31:03;;;;;;;14.38;7.25;;;;;;;;;;4901199;29;20074;-91
2021/09/27 04:33:36;;;;;;;9.90;6.97;;;;;;;;;;4917853;29;20088;-89
2021/09/27 04:36:19;;;;;;;10.45;7.15;;;;;;;;;;4900855;29;20032;-92
2021/09/27 04:38:47;;;;;;;9.38;6.22;;;;;;;;;;4900669;29;20032;-91
2021/09/27 04:41:13;;;;;;;11.25;7.13;;;;;;;;;;4901209;29;20043;-91
2021/09/27 04:43:51;;;;;;;13.45;6.75;;;;;;;;;;4901004;29;20032;-92
2021/09/27 04:46:33;;;;;;;11.88;6.82;;;;;;;;;;4901058;29;20386;-91
2021/09/27 04:49:18;;;;;;;9.60;5.90;;;;;;;;;;4901045;29;20024;-91
2021/09/27 04:51:48;;;;;;;13.15;6.35;;;;;;;;;;4901018;29;20434;-92
2021/09/27 04:54:21;;;;;;;8.48;6.43;;;;;;;;;;4900963;29;20080;-92
2021/09/27 04:56:53;;;;;;;9.50;6.43;;;;;;;;;;4900815;29;20029;-91
2021/09/27 04:59:22;;;;;;;11.18;6.47;;;;;;;;;;4918373;29;20039;-92
2021/09/27 05:02:07;;;;;;;8.85;6.55;;;;;;;;;;4901083;29;20482;-91
2021/09/27 05:04:33;;;;;;;10.05;6.30;;;;;;;;;;4900775;29;20060;-91
2021/09/27 05:07:18;;;;;;;9.20;6.57;;;;;;;;;;4917498;29;20032;-92
2021/09/27 05:10:01;;;;;;;10.18;5.95;;;;;;;;;;4900729;29;20473;-92
2021/09/27 05:12:45;;;;;;;12.65;7.50;;;;;;;;;;4900719;29;20040;-92
2021/09/27 05:15:17;;;;;;;11.13;6.53;;;;;;;;;;4900435;29;20028;-90
2021/09/27 05:17:54;;;;;;;11.98;6.30;;;;;;;;;;4918134;29;20092;-92
2021/09/27 05:20:40;;;;;;;11.13;7.45;;;;;;;;;;4900236;29;20028;-85
2021/09/27 05:23:17;;;;;;;15.30;7.93;;;;;;;;;;4916548;29;20027;-87
2021/09/27 05:25:49;;;;;;;12.63;6.97;;;;;;;;;;4900627;29;20039;-87
2021/09/27 05:28:34;;;;;;;12.13;7.10;;;;;;;;;;4899977;29;20028;-88
2021/09/27 05:31:19;;;;;;;11.52;6.50;;;;;;;;;;4917091;29;20040;-86
2021/09/27 05:33:57;;;;;;;11.27;7.03;;;;;;;;;;4900405;29;20040;-87
2021/09/27 05:36:34;;;;;;;10.15;6.43;;;;;;;;;;4900193;29;20067;-87
2021/09/27 05:39:20;;;;;;;11.40;6.45;;;;;;;;;;4900487;29;20473;-89
2021/09/27 05:41:47;;;;;;;16.23;7.38;;;;;;;;;;4903261;29;20039;-86
2021/09/27 05:44:22;;;;;;;17.25;7.38;;;;;;;;;;4905597;29;20028;-88
2021/09/27 05:46:57;;;;;;;16.00;7.13;;;;;;;;;;4903331;29;20082;-89
2021/09/27 05:49:23;;;;;;;10.65;6.05;;;;;;;;;;4903432;29;20024;-86
2021/09/27 05:51:51;;;;;;;11.98;6.80;;;;;;;;;;4903100;29;20206;-89
2021/09/27 05:54:20;;;;;;;11.43;6.28;;;;;;;;;;4920529;29;20027;-89
2021/09/27 05:56:46;;;;;;;12.27;6.88;;;;;;;;;;4903163;29;20032;-86
2021/09/27 05:59:18;;;;;;;12.30;6.22;;;;;;;;;;4903418;29;20035;-88
2021/09/27 06:02:02;;;;;;;10.68;6.50;;;;;;;;;;4903154;29;20029;-87
2021/09/27 06:04:49;;;;;;;12.07;5.85;;;;;;;;;;4902982;29;20043;-89
2021/09/27 06:07:26;;;;;;;9.35;5.65;;;;;;;;;;4902723;29;20079;-89
2021/09/27 06:10:07;;;;;;;7.55;5.13;;;;;;;;;;4903086;29;20111;-89
2021/09/27 06:12:50;;;;;;;9.75;5.32;;;;;;;;;;4902550;29;20043;-87
2021/09/27 06:15:17;;;;;;;8.98;5.60;;;;;;;;;;4902889;29;20040;-88
2021/09/27 06:18:02;;;;;;;10.90;5.00;;;;;;;;;;4902620;29;20102;-85
2021/09/27 06:20:34;;;;;;;8.88;5.53;;;;;;;;;;4902446;29;20036;-87
2021/09/27 06:23:15;;;;;;;11.43;6.13;;;;;;;;;;4902168;29;20032;-87
2021/09/27 06:26:01;;;;;;;9.43;5.53;;;;;;;;;;4902549;29;20052;-87
2021/09/27 06:28:33;;;;;;;8.45;5.10;;;;;;;;;;4902565;29;20033;-89
2021/09/27 06:31:04;;;;;;;11.23;5.82;;;;;;;;;;4902801;29;20486;-88
2021/09/27 06:33:36;;;;;;;7.95;5.30;;;;;;;;;;4902632;29;20028;-86
2021/09/27 06:36:11;;;;;;;8.60;4.93;;;;;;;;;;4902194;29;20505;-87
2021/09/27 06:38:38;;;;;;;7.68;4.47;;;;;;;;;;4919471;29;20048;-88
2021/09/27 06:41:16;;;;;;;14.88;5.50;;;;;;;;;;4908535;29;20036;-86
2021/09/27 06:43:46;;;;;;;10.43;5.05;;;;;;;;;;4927771;29;20505;-87
2021/09/27 06:46:12;;;;;;;9.10;5.45;;;;;;;;;;4902208;29;20055;-88
2021/09/27 06:48:38;;;;;;;9.88;4.63;;;;;;;;;;4902090;29;20032;-91
2021/09/27 06:51:04;;;;;;;10.88;4.63;;;;;;;;;;4901752;29;20039;-86
2021/09/27 06:53:30;;;;;;;10.68;4.70;;;;;;;;;;4901593;29;20024;-88
2021/09/27 06:55:58;;;;;;;10.50;4.63;;;;;;;;;;4901936;29;20028;-85
2021/09/27 06:58:24;;;;;;;6.65;4.00;;;;;;;;;;4902144;29;20028;-87
2021/09/27 07:00:51;;;;;;;9.88;5.18;;;;;;;;;;4901771;29;20032;-89
2021/09/27 07:03:17;;;;;;;8.85;4.72;;;;;;;;;;4901913;29;20075;-89
2021/09/27 07:05:44;;;;;;;7.72;5.32;;;;;;;;;;4902035;29;20028;-87
2021/09/27 07:08:10;;;;;;;9.85;5.40;;;;;;;;;;4901716;29;20474;-88
2021/09/27 07:10:36;;;;;;;8.02;5.38;;;;;;;;;;4901778;29;20131;-88
2021/09/27 07:13:02;;;;;;;12.15;6.38;;;;;;;;;;4901992;29;20031;-88
2021/09/27 07:15:28;;;;;;;11.85;6.03;;;;;;;;;;4901728;29;20154;-89
2021/09/27 07:17:55;;;;;;;14.40;6.70;;;;;;;;;;4901432;29;20052;-89
2021/09/27 07:20:25;;;;;;;10.00;6.25;;;;;;;;;;4918640;29;20028;-88
2021/09/27 07:22:54;;;;;;;12.85;6.32;;;;;;;;;;4901624;29;20059;-89
2021/09/27 07:25:20;;;;;;;10.98;5.90;;;;;;;;;;4901707;29;20031;-90
2021/09/27 07:27:47;;;;;;;9.35;5.95;;;;;;;;;;4901720;29;20036;-89
2021/09/27 07:30:14;;;;;;;14.52;6.47;;;;;;;;;;4901996;29;20020;-87
2021/09/27 07:32:42;;;;;;;12.73;6.80;;;;;;;;;;4901304;29;20064;-88
2021/09/27 07:35:10;;;;;;;12.85;7.88;;;;;;;;;;4901319;29;20046;-88
2021/09/27 07:37:40;;;;;;;17.13;9.57;;;;;;;;;;4901080;29;20032;-86
2021/09/27 07:40:07;;;;;;;19.42;9.77;;;;;;;;;;4901178;29;20031;-89
2021/09/27 07:42:33;;;;;;;13.27;8.25;;;;;;;;;;4901135;29;20500;-89
2021/09/27 07:45:00;;;;;;;17.02;9.07;;;;;;;;;;4902210;29;20067;-90
2021/09/27 07:47:26;;;;;;;11.38;7.07;;;;;;;;;;4901979;29;20469;-87
2021/09/27 07:49:52;;;;;;;11.35;6.32;;;;;;;;;;4901408;29;20024;-91
2021/09/27 07:52:18;;;;;;;10.80;6.88;;;;;;;;;;4901138;29;20176;-87
2021/09/27 07:54:44;;;;;;;10.10;6.20;;;;;;;;;;4901331;29;20458;-88
2021/09/27 07:57:10;;;;;;;11.95;6.75;;;;;;;;;;4901373;29;20541;-91
2021/09/27 07:59:36;;;;;;;11.38;6.88;;;;;;;;;;4901278;29;20172;-89
2021/09/27 08:02:02;;;;;;;10.02;6.13;;;;;;;;;;4900949;29;20028;-87
2021/09/27 08:04:29;;;;;;;9.27;6.43;;;;;;;;;;4900023;29;20091;-89
2021/09/27 08:06:55;;;;;;;9.13;6.15;;;;;;;;;;4901152;29;20032;-86
2021/09/27 08:09:21;;;;;;;8.23;5.78;;;;;;;;;;4900679;29;20027;-90
2021/09/27 08:11:47;;;;;;;11.60;6.03;;;;;;;;;;4917758;29;20478;-89
2021/09/27 08:14:13;;;;;;;10.45;6.03;;;;;;;;;;4900852;29;20454;-89
2021/09/27 08:16:40;;;;;;;11.05;6.82;;;;;;;;;;4900566;29;20035;-88
2021/09/27 08:19:06;;;;;;;13.40;8.13;;;;;;;;;;4900657;29;20044;-87
2021/09/27 08:21:32;;;;;;;13.18;7.85;;;;;;;;;;4918009;29;20039;-89
2021/09/27 08:23:59;;;;;;;17.25;9.40;;;;;;;;;;4901160;29;20020;-89
2021/09/27 08:26:25;;;;;;;15.27;9.25;;;;;;;;;;4900554;29;20119;-87
2021/09/27 08:28:51;;;;;;;13.85;8.90;;;;;;;;;;4900773;29;20550;-91
2021/09/27 08:31:20;;;;;;;16.38;10.95;;;;;;;;;;4900729;29;20131;-92
2021/09/27 08:33:47;;;;;;;16.80;10.55;;;;;;;;;;4900619;29;20028;-88
2021/09/27 08:36:15;;;;;;;22.40;12.73;;;;;;;;;;4900985;29;20032;-91
2021/09/27 08:38:41;;;;;;;23.88;14.68;;;;;;;;;;4900505;29;20036;-90
2021/09/27 08:41:26;;;;;;;21.00;13.18;;;;;;;;;;4900674;29;20496;-92
2021/09/27 08:44:01;;;;;;;21.92;13.80;;;;;;;;;;4900654;29;20512;-89
2021/09/27 08:46:34;;;;;;;26.33;13.23;;;;;;;;;;4900671;29;20028;-91
2021/09/27 08:49:21;;;;;;;20.77;12.15;;;;;;;;;;4901521;29;20142;-91
2021/09/27 08:51:47;;;;;;;16.70;10.43;;;;;;;;;;4900408;29;20051;-88
2021/09/27 08:54:15;;;;;;;20.38;10.48;;;;;;;;;;4900549;29;20035;-89
2021/09/27 08:56:50;;;;;;;18.27;9.90;;;;;;;;;;4900668;29;20040;-90
2021/09/27 08:59:36;;;;;;;16.23;10.05;;;;;;;;;;4900846;29;20028;-92
2021/09/27 09:02:15;;;;;;;14.80;9.13;;;;;;;;;;4872034;29;20036;-88
2021/09/27 09:04:54;;;;;;;13.45;8.75;;;;;;;;;;4900370;29;20059;-90
2021/09/27 09:07:21;;;;;;;14.20;8.98;;;;;;;;;;4900425;29;20038;-91
2021/09/27 09:09:49;;;;;;;13.20;8.10;;;;;;;;;;4917504;29;20032;-91
2021/09/27 09:12:15;;;;;;;15.85;8.40;;;;;;;;;;4900329;29;20044;-90
2021/09/27 09:14:42;;;;;;;13.85;8.63;;;;;;;;;;4917706;29;20391;-88
2021/09/27 09:17:25;;;;;;;12.07;7.53;;;;;;;;;;4903290;29;20499;-91
2021/09/27 09:19:51;;;;;;;12.82;8.05;;;;;;;;;;4900954;29;20393;-92
2021/09/27 09:22:26;;;;;;;10.82;7.30;;;;;;;;;;4901369;29;20036;-92
2021/09/27 09:24:54;;;;;;;13.60;7.65;;;;;;;;;;4900985;29;20227;-89
2021/09/27 09:27:21;;;;;;;12.68;7.32;;;;;;;;;;4900872;29;20043;-91
2021/09/27 09:29:47;;;;;;;11.98;7.20;;;;;;;;;;4900561;29;20032;-91
2021/09/27 09:32:16;;;;;;;9.95;6.63;;;;;;;;;;4900573;29;20379;-91
2021/09/27 09:34:42;;;;;;;11.57;6.53;;;;;;;;;;4900778;29;20513;-92
2021/09/27 09:37:35;;;;;;;11.52;7.15;;;;;;;;;;4900659;29;20036;-89
2021/09/27 09:40:04;;;;;;;10.77;6.68;;;;;;;;;;4898708;29;20119;-92
2021/09/27 09:42:32;;;;;;;11.77;7.53;;;;;;;;;;4900710;29;20032;-93
2021/09/27 09:45:10;;;;;;;12.40;7.28;;;;;;;;;;4900313;29;20080;-91
2021/09/27 09:47:37;;;;;;;12.13;7.75;;;;;;;;;;4901531;29;20111;-88
2021/09/27 09:50:22;;;;;;;9.45;6.80;;;;;;;;;;4900969;29;20037;-90
2021/09/27 09:52:49;;;;;;;12.25;7.05;;;;;;;;;;4901517;29;20124;-89
2021/09/27 09:55:21;;;;;;;12.13;7.25;;;;;;;;;;4908396;29;20025;-89
2021/09/27 09:57:56;;;;;;;10.35;6.60;;;;;;;;;;4903975;29;20028;-93
2021/09/27 10:00:42;;;;;;;12.32;7.00;;;;;;;;;;4903173;29;20043;-89
2021/09/27 10:03:13;;;;;;;11.55;7.50;;;;;;;;;;4898634;29;20177;-87
2021/09/27 10:05:41;;;;;;;10.20;7.03;;;;;;;;;;4882847;29;20025;-88
2021/09/27 10:08:14;;;;;;;10.35;6.15;;;;;;;;;;4890998;29;20028;-89
2021/09/27 10:10:53;;;;;;;12.70;5.82;;;;;;;;;;4902095;29;20035;-89
2021/09/27 10:13:42;;;;;;;9.60;6.13;;;;;;;;;;4903443;29;20033;-88
2021/09/27 10:16:38;;;;;;;13.23;6.93;;;;;;;;;;4897241;29;20112;-93
2021/09/27 10:19:43;;;;;;;10.68;6.55;;;;;;;;;;4878073;29;20053;-93
2021/09/27 10:22:11;;;;;;;9.20;6.10;;;;;;;;;;4893225;29;20088;-95
2021/09/27 10:24:51;;;;;;;10.63;6.20;;;;;;;;;;4905380;29;20060;-94
2021/09/27 10:27:36;;;;;;;11.68;6.57;;;;;;;;;;4904200;29;20051;-88
2021/09/27 10:30:30;;;;;;;10.00;5.82;;;;;;;;;;4909722;29;20039;-89
2021/09/27 10:33:02;;;;;;;9.98;5.82;;;;;;;;;;4905928;29;20045;-94
2021/09/27 10:35:40;;;;;;;10.55;6.35;;;;;;;;;;4903064;29;20539;-93
2021/09/27 10:38:15;;;;;;;10.43;5.90;;;;;;;;;;4904506;29;20036;-91
2021/09/27 10:40:43;;;;;;;10.10;5.97;;;;;;;;;;4885236;29;20032;-93
2021/09/27 10:43:15;;;;;;;12.18;6.53;;;;;;;;;;4899987;29;20115;-94
2021/09/27 10:45:43;;;;;;;10.10;7.05;;;;;;;;;;4900237;29;20029;-95
2021/09/27 10:48:10;;;;;;;10.70;6.93;;;;;;;;;;4901861;29;20063;-96
2021/09/27 10:50:43;;;;;;;9.98;6.60;;;;;;;;;;4901944;29;20033;-92
2021/09/27 10:53:38;;;;;;;11.55;7.15;;;;;;;;;;4907877;29;20029;-94
2021/09/27 10:56:40;;;;;;;12.48;7.30;;;;;;;;;;4908132;29;20048;-93
2021/09/27 10:59:47;;;;;;;12.88;7.80;;;;;;;;;;4895550;29;20101;-91
2021/09/27 11:02:40;;;;;;;13.98;7.80;;;;;;;;;;4847491;29;20041;-90
2021/09/27 11:08:51;;;;;;;11.85;7.85;;;;;;;;;;4858444;29;20071;-90
2021/09/27 11:11:51;;;;;;;11.93;7.88;;;;;;;;;;4873372;29;20527;-92
2021/09/27 11:17:59;;;;;;;14.30;8.18;;;;;;;;;;4856369;29;20191;-92
2021/09/27 11:20:31;;;;;;;12.50;8.02;;;;;;;;;;4852958;29;20131;-93
2021/09/27 11:23:00;;;;;;;12.05;7.85;;;;;;;;;;4851953;29;20479;-91
2021/09/27 11:25:50;;;;;;;12.88;8.00;;;;;;;;;;4861847;29;20026;-90
2021/09/27 11:29:08;;;;;;;14.73;8.23;;;;;;;;;;4893346;29;20123;-92
2021/09/27 11:32:02;;;;;;;14.60;8.70;;;;;;;;;;4903728;29;20028;-91
2021/09/27 11:35:13;;;;;;;14.63;9.40;;;;;;;;;;4916631;29;20096;-92
2021/09/27 11:38:07;;;;;;;15.30;8.82;;;;;;;;;;4912315;29;20100;-94
2021/09/27 11:41:05;;;;;;;12.90;8.07;;;;;;;;;;4914667;29;20065;-94
2021/09/27 11:46:54;;;;;;;12.90;7.47;;;;;;;;;;4916267;29;20015;-91
2021/09/27 11:49:59;;;;;;;13.02;7.50;;;;;;;;;;4896526;29;20032;-91
2021/09/27 11:53:00;;;;;;;11.18;7.00;;;;;;;;;;4908590;29;20044;-92
2021/09/27 11:55:32;;;;;;;12.82;7.07;;;;;;;;;;4910356;29;20475;-93
2021/09/27 11:58:24;;;;;;;12.52;7.25;;;;;;;;;;4906764;29;20115;-92
2021/09/27 12:01:43;;;;;;;15.18;8.32;;;;;;;;;;4908321;29;20040;-93
2021/09/27 12:04:35;;;;;;;13.25;7.63;;;;;;;;;;4911890;29;20041;-93
2021/09/27 12:13:40;;;;;;;12.98;8.02;;;;;;;;;;4912619;29;20047;-91
2021/09/27 12:17:04;;;;;;;;;;;;;;;;;;;;;
2021/09/27 12:23:11;;;;;;;13.75;8.10;;;;;;;;;;4819945;29;20042;-92
2021/09/27 12:25:43;;;;;;;13.40;8.98;;;;;;;;;;4826819;29;20146;-91
2021/09/27 12:28:11;;;;;;;14.10;9.13;;;;;;;;;;4869414;29;20033;-90
2021/09/27 12:30:39;;;;;;;13.70;8.02;;;;;;;;;;4887175;29;20040;-91
2021/09/27 12:33:09;;;;;;;15.07;9.40;;;;;;;;;;4879549;29;20500;-94
2021/09/27 12:35:46;;;;;;;13.88;8.07;;;;;;;;;;4879534;29;20029;-90
2021/09/27 12:38:18;;;;;;;11.98;7.80;;;;;;;;;;4879488;29;20114;-90
2021/09/27 12:40:50;;;;;;;12.82;7.43;;;;;;;;;;4879574;29;20048;-91
2021/09/27 12:43:17;;;;;;;10.77;7.13;;;;;;;;;;4879457;29;20500;-90
2021/09/27 12:46:06;;;;;;;12.32;7.20;;;;;;;;;;4880401;29;20031;-90
2021/09/27 12:48:40;;;;;;;11.63;7.10;;;;;;;;;;4881051;29;20029;-92
2021/09/27 12:51:22;;;;;;;10.52;7.40;;;;;;;;;;4881541;29;20037;-90
2021/09/27 12:54:09;;;;;;;12.30;7.50;;;;;;;;;;4883125;29;20456;-92
2021/09/27 12:56:36;;;;;;;13.88;8.13;;;;;;;;;;4883236;29;20025;-89
2021/09/27 12:59:04;;;;;;;14.18;7.78;;;;;;;;;;4882990;29;20128;-91
2021/09/27 13:01:33;;;;;;;13.05;6.85;;;;;;;;;;4882678;29;20031;-89
2021/09/27 13:04:11;;;;;;;12.23;6.40;;;;;;;;;;4882848;29;20060;-90
2021/09/27 13:06:49;;;;;;;9.10;6.47;;;;;;;;;;4882869;29;20067;-89
2021/09/27 13:09:21;;;;;;;8.30;5.15;;;;;;;;;;4883743;29;20025;-92
2021/09/27 13:11:50;;;;;;;9.80;5.80;;;;;;;;;;4882613;29;20037;-96
2021/09/27 13:14:22;;;;;;;10.50;5.90;;;;;;;;;;4882980;29;20093;-94
2021/09/27 13:16:50;;;;;;;8.40;5.53;;;;;;;;;;4883103;29;20148;-94
2021/09/27 13:19:37;;;;;;;10.32;5.72;;;;;;;;;;4908870;29;20123;-94
2021/09/27 13:22:04;;;;;;;9.63;5.80;;;;;;;;;;4920753;29;20078;-94
2021/09/27 13:24:30;;;;;;;9.32;6.25;;;;;;;;;;4921477;29;20031;-96
2021/09/27 13:27:23;;;;;;;11.13;7.45;;;;;;;;;;4920580;29;20024;-95
2021/09/27 13:29:51;;;;;;;10.38;7.57;;;;;;;;;;4917736;29;20496;-95
2021/09/27 13:32:24;;;;;;;11.05;7.10;;;;;;;;;;4921140;29;20465;-94
2021/09/27 13:35:08;;;;;;;13.20;7.35;;;;;;;;;;4920331;29;20032;-93
2021/09/27 13:38:05;;;;;;;11.93;6.82;;;;;;;;;;4922329;29;20028;-95
2021/09/27 13:41:08;;;;;;;12.52;6.80;;;;;;;;;;4922290;29;20096;-93
2021/09/27 13:43:34;;;;;;;10.05;5.88;;;;;;;;;;4922574;29;20464;-95
2021/09/27 13:46:05;;;;;;;10.13;5.90;;;;;;;;;;4922265;29;20028;-93
2021/09/27 13:48:47;;;;;;;10.50;6.70;;;;;;;;;;4923130;29;20044;-93
2021/09/27 13:51:39;;;;;;;9.68;6.03;;;;;;;;;;4926984;29;20545;-89
2021/09/27 13:54:28;;;;;;;10.85;6.50;;;;;;;;;;4926848;29;20039;-95
2021/09/27 13:56:56;;;;;;;11.77;6.57;;;;;;;;;;4929297;29;20027;-95
2021/09/27 13:59:52;;;;;;;10.60;6.63;;;;;;;;;;4909581;29;20044;-96
2021/09/27 14:02:45;;;;;;;11.43;5.07;;;;;;;;;;4918139;29;20490;-92
2021/09/27 14:08:17;;;;;;;8.45;5.13;;;;;;;;;;4928316;29;20078;-95
2021/09/27 14:10:50;;;;;;;6.53;4.72;;;;;;;;;;4929053;29;20035;-95
2021/09/27 14:16:24;;;;;;;5.75;4.28;;;;;;;;;;5489462;23;20453;-96
2021/09/27 14:18:51;;;;;;;7.85;5.00;;;;;;;;;;4941575;29;20036;-96
2021/09/27 14:21:20;;;;;;;8.30;5.18;;;;;;;;;;4941763;29;20055;-95
2021/09/27 14:23:47;;;;;;;8.45;5.22;;;;;;;;;;4941002;29;20024;-95
2021/09/27 14:26:14;;;;;;;8.38;5.40;;;;;;;;;;4941596;29;20543;-96
2021/09/27 14:31:44;;;;;;;7.68;5.63;;;;;;;;;;4979916;23;20074;-94
2021/09/27 14:34:10;;;;;;;10.30;5.10;;;;;;;;;;4943104;29;20067;-94
2021/09/27 14:36:36;;;;;;;12.25;5.75;;;;;;;;;;4945534;29;20032;-95
2021/09/27 14:39:04;;;;;;;7.55;5.55;;;;;;;;;;4947682;29;20027;-96
2021/09/27 14:41:30;;;;;;;10.90;5.43;;;;;;;;;;4943922;29;20381;-91
2021/09/27 14:44:03;;;;;;;8.73;5.28;;;;;;;;;;4947356;29;20039;-95
2021/09/27 14:46:30;;;;;;;7.60;5.00;;;;;;;;;;4943769;29;20114;-96
2021/09/27 14:49:12;;;;;;;9.13;5.25;;;;;;;;;;4945416;29;20035;-96
2021/09/27 14:51:38;;;;;;;9.52;5.20;;;;;;;;;;4943856;29;20036;-92
2021/09/27 14:54:15;;;;;;;7.43;4.97;;;;;;;;;;4947373;29;20020;-94
2021/09/27 14:56:41;;;;;;;8.10;5.03;;;;;;;;;;4940898;29;20040;-94
2021/09/27 14:59:10;;;;;;;6.78;4.70;;;;;;;;;;4940348;29;20047;-96
2021/09/27 15:01:36;;;;;;;6.03;4.32;;;;;;;;;;4943131;29;20032;-95
2021/09/27 15:04:03;;;;;;;7.75;4.57;;;;;;;;;;4941327;29;20030;-95
2021/09/27 15:06:31;;;;;;;7.43;4.72;;;;;;;;;;4940751;29;20055;-95
2021/09/27 15:09:06;;;;;;;6.82;4.45;;;;;;;;;;4956168;29;20042;-91
2021/09/27 15:11:33;;;;;;;7.45;4.38;;;;;;;;;;4943211;29;20048;-95
2021/09/27 15:14:02;;;;;;;7.90;5.40;;;;;;;;;;4948952;29;20034;-96
2021/09/27 15:16:28;;;;;;;8.73;5.00;;;;;;;;;;4946050;29;20059;-94
2021/09/27 15:18:55;;;;;;;8.68;5.35;;;;;;;;;;4938334;29;20028;-93
2021/09/27 15:21:21;;;;;;;9.48;4.75;;;;;;;;;;4938222;29;20024;-95
2021/09/27 15:23:47;;;;;;;7.82;5.43;;;;;;;;;;4937527;29;20038;-95
2021/09/27 15:26:18;;;;;;;7.57;4.55;;;;;;;;;;4937353;29;20071;-94
2021/09/27 15:28:44;;;;;;;8.02;4.80;;;;;;;;;;4938697;29;20023;-95
2021/09/27 15:31:32;;;;;;;7.40;4.57;;;;;;;;;;4927538;29;20048;-96
2021/09/27 15:34:41;;;;;;;8.38;5.22;;;;;;;;;;4930462;29;20048;-95
2021/09/27 15:37:29;;;;;;;7.13;5.10;;;;;;;;;;4938650;29;20043;-96
2021/09/27 15:40:25;;;;;;;16.90;5.35;;;;;;;;;;4943328;29;20043;-92
2021/09/27 15:43:20;;;;;;;9.88;6.82;;;;;;;;;;4943469;29;20020;-96
2021/09/27 15:46:08;;;;;;;12.00;8.15;;;;;;;;;;4941196;29;20035;-95